createdAt,value
2023-04-25T00:00:16.850Z,95549.66
2023-04-25T00:02:43.874Z,95542.88
2023-04-25T00:05:10.782Z,95495.59
2023-04-25T00:07:37.462Z,95526.28
2023-04-25T00:10:04.681Z,95536.44
2023-04-25T00:12:31.284Z,95537.16
2023-04-25T00:14:58.176Z,95491.88
2023-04-25T00:17:25.834Z,95355.22
2023-04-25T00:19:52.605Z,95475.31
2023-04-25T00:22:19.402Z,95613.91
2023-04-25T00:24:46.003Z,95480.53
2023-04-25T00:27:12.601Z,95532.44
2023-04-25T00:29:39.194Z,95594.56
2023-04-25T00:32:06.013Z,95549.22
2023-04-25T00:34:32.651Z,95441.06
2023-04-25T00:36:59.579Z,95535.25
2023-04-25T00:39:26.208Z,95565.66
2023-04-25T00:41:54.261Z,95619.81
2023-04-25T00:44:21.021Z,95556.56
2023-04-25T00:46:49.266Z,95470.06
2023-04-25T00:49:17.905Z,95596.25
2023-04-25T00:51:47.902Z,95566.44
2023-04-25T00:54:15.327Z,95546.41
2023-04-25T00:56:42.963Z,95535.94
2023-04-25T00:59:10.813Z,95552.56
2023-04-25T01:01:37.479Z,95580.66
2023-04-25T01:04:04.319Z,95557.56
2023-04-25T01:06:31.231Z,95582.69
2023-04-25T01:08:57.949Z,95391.91
2023-04-25T01:11:24.533Z,95558.28
2023-04-25T01:13:51.358Z,95571.69
2023-04-25T01:16:18.225Z,95564.25
2023-04-25T01:18:44.885Z,95559.66
2023-04-25T01:21:12.148Z,95505.16
2023-04-25T01:23:39.590Z,95499.19
2023-04-25T01:26:06.219Z,95495.84
2023-04-25T01:28:33.939Z,95482.56
2023-04-25T01:31:00.621Z,95525.28
2023-04-25T01:33:27.197Z,95565.03
2023-04-25T01:35:53.888Z,95355.09
2023-04-25T01:38:20.555Z,95532.50
2023-04-25T01:40:48.256Z,95552.16
2023-04-25T01:43:15.402Z,95621.00
2023-04-25T01:45:42.651Z,95309.63
2023-04-25T01:48:10.396Z,95370.78
2023-04-25T01:50:37.908Z,95546.50
2023-04-25T01:53:04.907Z,95577.16
2023-04-25T01:55:31.480Z,95482.28
2023-04-25T01:57:58.199Z,95537.81
2023-04-25T02:00:24.825Z,95559.91
2023-04-25T02:02:51.929Z,95600.00
2023-04-25T02:05:18.793Z,95438.41
2023-04-25T02:07:45.706Z,95573.28
2023-04-25T02:10:12.292Z,95543.97
2023-04-25T02:12:38.894Z,95547.47
2023-04-25T02:15:06.169Z,95534.13
2023-04-25T02:17:32.824Z,95568.13
2023-04-25T02:19:59.405Z,95532.50
2023-04-25T02:22:26.278Z,95529.63
2023-04-25T02:24:52.916Z,95548.75
2023-04-25T02:27:19.495Z,95486.59
2023-04-25T02:29:46.088Z,95581.22
2023-04-25T02:32:12.711Z,95570.72
2023-04-25T02:34:39.401Z,95307.38
2023-04-25T02:37:06.035Z,95609.00
2023-04-25T02:39:32.637Z,95493.06
2023-04-25T02:41:59.226Z,95430.06
2023-04-25T02:44:25.960Z,95554.63
2023-04-25T02:46:52.593Z,95492.25
2023-04-25T02:49:19.217Z,95590.69
2023-04-25T02:51:45.836Z,95568.09
2023-04-25T02:54:12.414Z,95448.41
2023-04-25T02:56:39.142Z,95581.91
2023-04-25T02:59:05.987Z,95489.81
2023-04-25T03:01:32.642Z,95575.88
2023-04-25T03:03:59.272Z,95486.41
2023-04-25T03:06:26.016Z,95526.88
2023-04-25T03:08:52.643Z,95545.94
2023-04-25T03:11:21.336Z,95462.59
2023-04-25T03:13:48.427Z,95406.69
2023-04-25T03:16:15.399Z,95467.16
2023-04-25T03:18:42.062Z,95554.31
2023-04-25T03:21:08.667Z,95245.91
2023-04-25T03:23:35.383Z,95468.75
2023-04-25T03:26:02.009Z,95437.81
2023-04-25T03:28:28.972Z,95529.38
2023-04-25T03:30:55.661Z,95531.53
2023-04-25T03:33:22.744Z,95473.41
2023-04-25T03:35:50.934Z,95547.16
2023-04-25T03:38:18.158Z,95442.06
2023-04-25T03:40:44.740Z,95619.81
2023-04-25T03:43:12.342Z,95534.81
2023-04-25T03:45:38.985Z,95495.63
2023-04-25T03:48:06.030Z,95547.06
2023-04-25T03:50:32.728Z,95559.03
2023-04-25T03:52:59.338Z,95624.38
2023-04-25T03:55:25.959Z,95515.78
2023-04-25T03:57:52.662Z,95530.78
2023-04-25T04:00:19.370Z,95567.25
2023-04-25T04:02:46.192Z,95574.00
2023-04-25T04:05:13.579Z,95554.00
2023-04-25T04:07:41.238Z,95588.38
2023-04-25T04:10:08.666Z,95617.09
2023-04-25T04:12:35.497Z,95571.28
2023-04-25T04:15:04.632Z,95599.19
2023-04-25T04:17:31.480Z,95615.03
2023-04-25T04:19:58.187Z,95502.06
2023-04-25T04:22:24.847Z,95498.34
2023-04-25T04:24:51.851Z,95482.19
2023-04-25T04:27:19.410Z,95392.22
2023-04-25T04:29:46.959Z,95580.13
2023-04-25T04:32:14.570Z,95513.50
2023-04-25T04:34:42.298Z,95536.44
2023-04-25T04:37:09.137Z,95497.69
2023-04-25T04:39:36.125Z,95541.75
2023-04-25T04:42:02.792Z,95644.56
2023-04-25T04:44:35.443Z,95575.78
2023-04-25T04:47:02.960Z,95580.13
2023-04-25T04:49:29.810Z,95409.75
2023-04-25T04:51:58.385Z,95661.34
2023-04-25T04:54:26.985Z,95322.22
2023-04-25T04:56:53.805Z,95657.00
2023-04-25T04:59:20.815Z,95609.03
2023-04-25T05:01:48.050Z,95636.00
2023-04-25T05:04:14.814Z,95450.44
2023-04-25T05:06:41.572Z,95532.06
2023-04-25T05:09:08.160Z,95626.31
2023-04-25T05:11:34.784Z,95326.59
2023-04-25T05:14:01.580Z,95564.50
2023-04-25T05:16:28.444Z,95570.94
2023-04-25T05:18:55.107Z,95662.97
2023-04-25T05:21:21.765Z,95547.41
2023-04-25T05:23:48.469Z,95688.19
2023-04-25T05:26:15.252Z,95629.69
2023-04-25T05:28:42.684Z,95650.53
2023-04-25T05:31:10.982Z,95687.19
2023-04-25T05:33:37.585Z,95590.81
2023-04-25T05:36:04.598Z,95589.00
2023-04-25T05:38:33.249Z,95584.16
2023-04-25T05:41:01.554Z,95609.84
2023-04-25T05:43:28.168Z,95613.53
2023-04-25T05:45:54.877Z,95654.88
2023-04-25T05:48:21.596Z,95529.41
2023-04-25T05:50:48.251Z,95631.13
2023-04-25T05:53:14.889Z,95624.22
2023-04-25T05:55:41.494Z,95593.22
2023-04-25T05:58:08.270Z,95613.09
2023-04-25T06:00:35.023Z,95545.94
2023-04-25T06:03:02.502Z,95601.94
2023-04-25T06:05:29.551Z,95628.25
2023-04-25T06:07:56.343Z,95666.50
2023-04-25T06:10:23.844Z,95680.09
2023-04-25T06:12:50.459Z,95633.41
2023-04-25T06:15:28.234Z,95629.03
2023-04-25T06:17:55.621Z,95338.78
2023-04-25T06:20:24.324Z,95498.19
2023-04-25T06:22:52.629Z,95605.94
2023-04-25T06:25:19.443Z,95629.34
2023-04-25T06:27:46.031Z,95656.63
2023-04-25T06:30:13.220Z,95659.22
2023-04-25T06:32:40.306Z,95543.66
2023-04-25T06:35:07.381Z,95588.66
2023-04-25T06:37:34.075Z,95666.03
2023-04-25T06:40:00.720Z,95521.31
2023-04-25T06:42:27.329Z,95597.00
2023-04-25T06:44:53.994Z,95609.88
2023-04-25T06:47:20.851Z,95485.69
2023-04-25T06:49:47.546Z,95617.44
2023-04-25T06:52:14.230Z,95410.28
2023-04-25T06:54:40.863Z,95603.72
2023-04-25T06:57:07.567Z,95653.25
2023-04-25T06:59:34.252Z,95575.53
2023-04-25T07:02:00.891Z,95452.97
2023-04-25T07:04:27.773Z,95598.09
2023-04-25T07:06:54.558Z,95666.03
2023-04-25T07:09:21.244Z,95530.19
2023-04-25T07:11:47.908Z,95649.34
2023-04-25T07:14:14.639Z,95529.00
2023-04-25T07:16:41.430Z,95634.91
2023-04-25T07:19:08.261Z,95501.19
2023-04-25T07:21:35.199Z,95611.22
2023-04-25T07:24:01.869Z,95556.56
2023-04-25T07:26:28.506Z,95501.44
2023-04-25T07:28:55.693Z,95332.47
2023-04-25T07:31:23.023Z,95524.88
2023-04-25T07:33:49.659Z,95463.94
2023-04-25T07:36:16.577Z,95581.56
2023-04-25T07:38:43.267Z,95629.50
2023-04-25T07:41:09.962Z,95653.03
2023-04-25T07:43:36.597Z,95611.56
2023-04-25T07:46:03.832Z,95403.25
2023-04-25T07:48:30.789Z,95585.94
2023-04-25T07:50:57.437Z,95391.75
2023-04-25T07:53:24.061Z,95603.50
2023-04-25T07:55:51.433Z,95623.81
2023-04-25T07:58:22.252Z,95547.69
2023-04-25T08:00:49.583Z,95610.38
2023-04-25T08:03:16.557Z,95407.38
2023-04-25T08:05:43.629Z,95553.72
2023-04-25T08:08:10.393Z,95520.91
2023-04-25T08:10:37.232Z,95560.78
2023-04-25T08:13:04.077Z,95608.22
2023-04-25T08:15:30.828Z,95564.06
2023-04-25T08:17:57.534Z,95562.00
2023-04-25T08:20:24.274Z,95578.97
2023-04-25T08:22:50.932Z,95500.44
2023-04-25T08:25:17.574Z,95587.56
2023-04-25T08:27:44.600Z,95552.88
2023-04-25T08:30:11.464Z,95615.63
2023-04-25T08:32:39.957Z,95574.13
2023-04-25T08:35:07.756Z,95561.09
2023-04-25T08:37:34.402Z,95632.53
2023-04-25T08:40:01.085Z,95578.69
2023-04-25T08:42:28.258Z,95579.84
2023-04-25T08:44:55.979Z,95660.94
2023-04-25T08:47:23.567Z,95408.53
2023-04-25T08:49:50.600Z,95587.91
2023-04-25T08:52:17.271Z,95606.53
2023-04-25T08:54:45.535Z,95605.78
2023-04-25T08:57:12.364Z,95587.22
2023-04-25T08:59:40.037Z,95631.38
2023-04-25T09:02:07.122Z,95621.81
2023-04-25T09:04:33.726Z,95633.41
2023-04-25T09:07:00.500Z,95621.59
2023-04-25T09:09:27.109Z,95572.72
2023-04-25T09:11:53.774Z,95543.31
2023-04-25T09:14:21.827Z,95617.00
2023-04-25T09:16:58.833Z,95572.53
2023-04-25T09:22:01.668Z,95419.47
2023-04-25T09:24:33.083Z,95587.47
2023-04-25T09:26:59.698Z,95646.25
2023-04-25T09:29:38.890Z,95476.47
2023-04-25T09:32:19.715Z,95667.53
2023-04-25T09:34:56.845Z,95542.16
2023-04-25T09:37:32.842Z,95659.38
2023-04-25T09:40:01.364Z,95528.44
2023-04-25T09:42:29.999Z,95666.31
2023-04-25T09:44:57.121Z,95584.91
2023-04-25T09:47:24.886Z,95664.88
2023-04-25T09:49:52.179Z,95582.13
2023-04-25T09:52:25.687Z,95567.56
2023-04-25T09:54:53.056Z,95631.22
2023-04-25T09:57:22.065Z,95500.69
2023-04-25T09:59:55.907Z,95638.84
2023-04-25T10:02:26.577Z,95610.56
2023-04-25T10:04:57.057Z,95596.09
2023-04-25T10:07:29.283Z,95589.41
2023-04-25T10:10:00.901Z,95623.06
2023-04-25T10:12:27.708Z,95637.25
2023-04-25T10:14:54.293Z,95620.81
2023-04-25T10:17:21.170Z,95560.34
2023-04-25T10:19:51.417Z,95576.81
2023-04-25T10:22:20.076Z,95373.78
2023-04-25T10:24:47.550Z,95578.22
2023-04-25T10:27:14.251Z,95569.81
2023-04-25T10:29:41.157Z,95589.75
2023-04-25T10:32:07.845Z,95641.34
2023-04-25T10:34:47.651Z,95426.31
2023-04-25T10:37:14.484Z,95638.09
2023-04-25T10:39:42.312Z,95580.06
2023-04-25T10:42:09.132Z,95405.66
2023-04-25T10:44:35.923Z,95674.72
2023-04-25T10:47:04.591Z,95644.84
2023-04-25T10:49:38.397Z,95464.19
2023-04-25T10:52:24.025Z,95639.97
2023-04-25T10:54:57.676Z,95509.63
2023-04-25T10:57:44.410Z,95643.56
2023-04-25T11:00:16.450Z,95592.28
2023-04-25T11:02:53.333Z,95617.47
2023-04-25T11:05:23.518Z,95636.66
2023-04-25T11:08:06.577Z,95575.22
2023-04-25T11:10:37.595Z,95558.44
2023-04-25T11:13:04.306Z,95664.19
2023-04-25T11:15:31.109Z,95580.81
2023-04-25T11:17:57.922Z,95615.81
2023-04-25T11:20:27.054Z,95600.13
2023-04-25T11:22:53.973Z,95418.69
2023-04-25T11:25:21.260Z,95585.50
2023-04-25T11:27:52.466Z,95529.28
2023-04-25T11:30:19.633Z,95550.63
2023-04-25T11:32:46.587Z,95557.19
2023-04-25T11:35:13.461Z,95524.56
2023-04-25T11:37:41.068Z,95560.03
2023-04-25T11:40:09.014Z,95458.72
2023-04-25T11:42:35.668Z,95605.78
2023-04-25T11:45:02.263Z,95583.22
2023-04-25T11:47:33.091Z,95610.31
2023-04-25T11:50:03.995Z,95595.13
2023-04-25T11:53:00.044Z,95631.59
2023-04-25T11:55:27.460Z,95529.84
2023-04-25T11:57:54.093Z,95546.72
2023-04-25T12:00:21.882Z,95610.31
2023-04-25T12:02:52.111Z,95582.47
2023-04-25T12:07:48.503Z,95587.47
2023-04-25T12:10:16.112Z,95535.22
2023-04-25T12:12:43.472Z,95561.25
2023-04-25T12:15:30.422Z,95611.69
2023-04-25T12:17:57.058Z,95464.25
2023-04-25T12:20:26.140Z,95385.28
2023-04-25T12:22:53.074Z,95480.50
2023-04-25T12:25:42.092Z,95600.28
2023-04-25T12:28:15.268Z,95607.88
2023-04-25T12:31:03.052Z,95604.06
2023-04-25T12:33:40.602Z,95466.50
2023-04-25T12:36:12.131Z,95555.31
2023-04-25T12:38:42.786Z,95425.34
2023-04-25T12:41:10.085Z,95501.16
2023-04-25T12:43:36.677Z,95600.25
2023-04-25T12:46:03.492Z,95540.88
2023-04-25T12:48:30.173Z,95310.38
2023-04-25T12:50:56.787Z,95490.63
2023-04-25T12:53:24.084Z,95569.53
2023-04-25T12:55:51.168Z,95465.19
2023-04-25T12:58:19.136Z,95285.69
2023-04-25T13:00:45.985Z,95343.84
2023-04-25T13:03:13.560Z,95457.31
2023-04-25T13:05:40.875Z,95552.25
2023-04-25T13:08:07.594Z,95523.16
2023-04-25T13:10:35.104Z,95592.59
2023-04-25T13:13:02.503Z,95595.19
2023-04-25T13:15:29.170Z,95594.81
2023-04-25T13:17:57.212Z,95531.16
2023-04-25T13:20:24.274Z,95549.59
2023-04-25T13:22:54.127Z,95575.47
2023-04-25T13:25:20.779Z,95484.31
2023-04-25T13:27:47.595Z,95530.28
2023-04-25T13:30:14.358Z,95556.28
2023-04-25T13:32:41.174Z,95533.63
2023-04-25T13:35:10.864Z,95504.97
2023-04-25T13:37:38.286Z,95489.31
2023-04-25T13:40:06.800Z,95518.81
2023-04-25T13:42:33.670Z,95546.69
2023-04-25T13:45:00.279Z,95547.91
2023-04-25T13:47:27.046Z,95561.53
2023-04-25T13:49:53.658Z,95503.75
2023-04-25T13:52:20.502Z,95536.25
2023-04-25T13:54:48.054Z,95533.81
2023-04-25T13:57:14.754Z,95557.66
2023-04-25T13:59:42.745Z,95610.00
2023-04-25T14:02:09.395Z,95502.91
2023-04-25T14:04:36.098Z,95535.53
2023-04-25T14:07:03.878Z,95556.28
2023-04-25T14:09:30.640Z,95599.63
2023-04-25T14:11:57.462Z,95581.69
2023-04-25T14:14:24.594Z,95524.97
2023-04-25T14:16:51.466Z,95550.69
2023-04-25T14:19:21.597Z,95357.63
2023-04-25T14:21:48.924Z,95557.66
2023-04-25T14:24:15.890Z,95553.41
2023-04-25T14:26:43.485Z,95477.06
2023-04-25T14:29:10.245Z,95518.88
2023-04-25T14:31:36.888Z,95565.84
2023-04-25T14:34:03.685Z,95529.94
2023-04-25T14:36:31.859Z,95541.75
2023-04-25T14:38:58.637Z,95602.56
2023-04-25T14:41:26.017Z,95584.13
2023-04-25T14:43:53.994Z,95548.84
2023-04-25T14:46:21.590Z,95540.50
2023-04-25T14:48:48.639Z,95550.19
2023-04-25T14:51:15.601Z,95607.91
2023-04-25T14:53:42.669Z,95646.00
2023-04-25T14:56:09.934Z,95540.91
2023-04-25T14:58:36.627Z,95562.16
2023-04-25T15:01:03.375Z,95427.31
2023-04-25T15:03:30.418Z,95588.91
2023-04-25T15:05:57.283Z,95651.66
2023-04-25T15:08:23.905Z,95511.47
2023-04-25T15:10:51.511Z,95545.13
2023-04-25T15:13:19.490Z,95454.03
2023-04-25T15:15:52.098Z,95308.69
2023-04-25T15:18:23.062Z,95585.22
2023-04-25T15:20:50.331Z,95556.94
2023-04-25T15:23:17.768Z,95537.38
2023-04-25T15:25:44.403Z,95584.84
2023-04-25T15:28:11.076Z,95576.84
2023-04-25T15:30:38.013Z,95530.84
2023-04-25T15:33:05.217Z,95600.50
2023-04-25T15:35:31.865Z,95307.19
2023-04-25T15:37:58.620Z,95641.56
2023-04-25T15:40:25.480Z,95638.00
2023-04-25T15:42:52.659Z,95604.81
2023-04-25T15:45:28.398Z,95616.38
2023-04-25T15:47:56.885Z,95577.72
2023-04-25T15:50:23.739Z,95608.75
2023-04-25T15:52:50.786Z,95614.72
2023-04-25T15:55:18.578Z,95610.50
2023-04-25T15:57:45.570Z,95663.25
2023-04-25T16:00:13.600Z,95493.22
2023-04-25T16:02:40.935Z,95611.13
2023-04-25T16:05:09.117Z,95416.09
2023-04-25T16:07:36.330Z,95676.81
2023-04-25T16:10:03.182Z,95626.06
2023-04-25T16:12:31.186Z,95546.28
2023-04-25T16:14:58.302Z,95565.81
2023-04-25T16:17:25.681Z,95433.84
2023-04-25T16:19:52.289Z,95584.53
2023-04-25T16:22:18.998Z,95586.75
2023-04-25T16:24:45.631Z,95510.53
2023-04-25T16:27:12.510Z,95479.38
2023-04-25T16:29:39.261Z,95549.97
2023-04-25T16:32:06.228Z,95505.13
2023-04-25T16:34:32.913Z,95578.84
2023-04-25T16:36:59.643Z,95651.34
2023-04-25T16:39:26.319Z,95583.28
2023-04-25T16:41:53.238Z,95524.94
2023-04-25T16:44:19.932Z,95510.31
2023-04-25T16:46:46.809Z,95617.59
2023-04-25T16:49:13.512Z,95554.41
2023-04-25T16:51:40.236Z,95423.13
2023-04-25T16:54:06.975Z,95619.31
2023-04-25T16:56:33.682Z,95599.38
2023-04-25T16:59:00.490Z,95625.94
2023-04-25T17:01:27.126Z,95632.22
2023-04-25T17:03:53.924Z,95609.22
2023-04-25T17:06:20.849Z,95342.19
2023-04-25T17:08:47.437Z,95625.63
2023-04-25T17:11:14.152Z,95586.41
2023-04-25T17:13:43.430Z,95636.28
2023-04-25T17:16:12.205Z,95680.66
2023-04-25T17:18:41.741Z,95559.75
2023-04-25T17:21:08.984Z,95622.31
2023-04-25T17:23:36.083Z,95455.22
2023-04-25T17:26:02.692Z,95562.06
2023-04-25T17:28:29.474Z,95701.56
2023-04-25T17:30:57.495Z,95443.66
2023-04-25T17:33:27.062Z,95682.59
2023-04-25T17:35:54.419Z,95676.66
2023-04-25T17:38:21.120Z,95722.53
2023-04-25T17:40:47.917Z,95669.81
2023-04-25T17:43:14.627Z,95404.44
2023-04-25T17:45:41.406Z,95715.66
2023-04-25T17:48:08.555Z,95486.00
2023-04-25T17:50:35.241Z,95686.56
2023-04-25T17:53:05.062Z,95768.56
2023-04-25T17:55:31.728Z,95700.03
2023-04-25T17:57:58.348Z,95716.38
2023-04-25T18:00:25.079Z,95698.97
2023-04-25T18:02:52.304Z,95746.47
2023-04-25T18:05:19.339Z,95735.00
2023-04-25T18:07:46.480Z,95713.31
2023-04-25T18:10:14.474Z,95758.78
2023-04-25T18:12:41.057Z,95698.28
2023-04-25T18:15:08.297Z,95751.28
2023-04-25T18:17:39.954Z,95725.59
2023-04-25T18:20:08.450Z,95825.78
2023-04-25T18:22:35.258Z,95770.72
2023-04-25T18:25:04.573Z,95806.59
2023-04-25T18:27:33.026Z,95818.06
2023-04-25T18:29:59.861Z,95699.63
2023-04-25T18:32:28.474Z,95802.91
2023-04-25T18:34:55.867Z,95767.13
2023-04-25T18:37:22.570Z,95721.22
2023-04-25T18:39:49.204Z,95610.34
2023-04-25T18:42:16.239Z,95865.91
2023-04-25T18:44:43.048Z,95844.81
2023-04-25T18:47:10.366Z,95662.34
2023-04-25T18:49:37.702Z,95807.28
2023-04-25T18:52:05.021Z,95820.53
2023-04-25T18:54:32.273Z,95718.16
2023-04-25T18:57:01.273Z,95805.31
2023-04-25T18:59:28.061Z,95800.53
2023-04-25T19:01:54.772Z,95818.16
2023-04-25T19:04:21.943Z,95737.31
2023-04-25T19:06:52.185Z,95723.81
2023-04-25T19:09:18.940Z,95685.03
2023-04-25T19:11:45.873Z,95827.22
2023-04-25T19:14:13.837Z,95757.63
2023-04-25T19:16:40.716Z,95887.69
2023-04-25T19:19:09.217Z,95799.84
2023-04-25T19:21:36.334Z,95737.25
2023-04-25T19:24:04.806Z,95850.16
2023-04-25T19:26:31.894Z,95843.06
2023-04-25T19:29:09.406Z,95878.50
2023-04-25T19:31:36.928Z,95822.53
2023-04-25T19:34:07.658Z,95764.47
2023-04-25T19:36:34.467Z,95789.22
2023-04-25T19:39:02.602Z,95879.03
2023-04-25T19:41:29.780Z,95848.13
2023-04-25T19:43:56.491Z,95727.47
2023-04-25T19:46:23.736Z,95835.50
2023-04-25T19:48:50.601Z,95873.06
2023-04-25T19:51:18.908Z,95869.16
2023-04-25T19:53:45.705Z,95858.13
2023-04-25T19:56:12.382Z,95913.00
2023-04-25T19:58:39.109Z,95882.88
2023-04-25T20:01:05.764Z,95915.47
2023-04-25T20:03:32.691Z,95880.16
2023-04-25T20:05:59.480Z,95758.78
2023-04-25T20:08:26.303Z,95933.56
2023-04-25T20:10:52.917Z,95843.94
2023-04-25T20:13:19.511Z,95819.75
2023-04-25T20:15:46.190Z,95927.84
2023-04-25T20:18:12.925Z,95899.63
2023-04-25T20:20:39.663Z,95811.44
2023-04-25T20:23:06.979Z,95907.09
2023-04-25T20:25:33.560Z,95893.47
2023-04-25T20:28:00.160Z,95825.00
2023-04-25T20:30:26.921Z,95550.53
2023-04-25T20:32:53.548Z,95872.25
2023-04-25T20:35:22.792Z,95937.16
2023-04-25T20:37:50.665Z,95844.56
2023-04-25T20:40:17.285Z,95894.81
2023-04-25T20:42:43.885Z,95899.69
2023-04-25T20:45:13.949Z,95891.69
2023-04-25T20:47:41.328Z,95847.59
2023-04-25T20:50:08.791Z,95852.03
2023-04-25T20:52:37.223Z,95875.00
2023-04-25T20:55:05.391Z,95929.59
2023-04-25T20:57:32.366Z,95770.75
2023-04-25T20:59:59.094Z,95866.81
2023-04-25T21:02:25.798Z,95894.72
2023-04-25T21:04:52.482Z,95805.59
2023-04-25T21:07:19.593Z,95895.25
2023-04-25T21:09:46.253Z,95984.75
2023-04-25T21:12:12.885Z,95929.16
2023-04-25T21:14:39.569Z,95941.53
2023-04-25T21:17:06.271Z,95932.25
2023-04-25T21:19:33.392Z,95937.06
2023-04-25T21:22:00.362Z,95926.91
2023-04-25T21:24:27.403Z,95931.25
2023-04-25T21:26:54.118Z,95906.50
2023-04-25T21:29:20.812Z,95951.44
2023-04-25T21:31:47.509Z,95941.50
2023-04-25T21:34:14.186Z,95992.44
2023-04-25T21:36:41.413Z,95957.84
2023-04-25T21:39:08.064Z,95948.88
2023-04-25T21:41:34.870Z,95822.13
2023-04-25T21:44:01.627Z,95808.00
2023-04-25T21:46:28.498Z,95947.59
2023-04-25T21:48:55.389Z,95780.47
2023-04-25T21:51:22.848Z,95966.41
2023-04-25T21:53:49.523Z,95765.13
2023-04-25T21:56:16.212Z,95953.72
2023-04-25T21:58:42.914Z,95985.00
2023-04-25T22:01:10.026Z,95874.56
2023-04-25T22:03:36.793Z,95968.94
2023-04-25T22:06:04.085Z,95920.59
2023-04-25T22:08:30.714Z,95700.56
2023-04-25T22:10:57.400Z,95752.03
2023-04-25T22:13:24.106Z,95980.63
2023-04-25T22:15:50.936Z,95958.28
2023-04-25T22:18:18.132Z,96016.75
2023-04-25T22:20:45.151Z,96008.44
2023-04-25T22:23:14.883Z,96016.53
2023-04-25T22:25:42.069Z,95967.53
2023-04-25T22:28:08.763Z,95977.69
2023-04-25T22:30:35.411Z,95948.41
2023-04-25T22:33:02.178Z,95996.38
2023-04-25T22:35:28.907Z,96012.88
2023-04-25T22:37:55.601Z,96010.09
2023-04-25T22:40:22.272Z,95964.38
2023-04-25T22:42:49.028Z,95988.50
2023-04-25T22:45:16.147Z,96003.84
2023-04-25T22:47:43.194Z,95901.53
2023-04-25T22:50:13.967Z,95927.91
2023-04-25T22:52:42.440Z,95984.13
2023-04-25T22:55:10.812Z,96047.47
2023-04-25T22:57:39.051Z,96038.75
2023-04-25T23:00:10.848Z,96041.09
2023-04-25T23:02:37.522Z,96054.34
2023-04-25T23:05:06.954Z,95953.84
2023-04-25T23:07:35.071Z,96099.19
2023-04-25T23:10:01.846Z,96038.31
2023-04-25T23:12:28.679Z,96031.41
2023-04-25T23:14:55.353Z,95976.88
2023-04-25T23:17:22.527Z,96053.50
2023-04-25T23:19:49.197Z,95936.63
2023-04-25T23:22:15.895Z,95801.06
2023-04-25T23:24:42.596Z,96105.53
2023-04-25T23:27:09.360Z,96035.63
2023-04-25T23:29:36.171Z,96028.53
2023-04-25T23:32:02.780Z,95922.75
2023-04-25T23:34:32.693Z,96059.44
2023-04-25T23:37:01.485Z,96060.94
2023-04-25T23:39:28.377Z,96063.56
2023-04-25T23:41:55.057Z,96120.38
2023-04-25T23:44:22.285Z,95835.19
2023-04-25T23:46:49.579Z,96051.97
2023-04-25T23:49:16.238Z,96039.09
2023-04-25T23:51:43.114Z,96106.13
2023-04-25T23:54:09.767Z,96065.50
2023-04-25T23:56:36.433Z,96097.31
2023-04-25T23:59:03.838Z,95975.91
